Time;durP1;ratioP1;P1;durP2;ratioP2;P2;SDS_P1;SDS_P2;PMS_P1;PMS_P2;Temp;Humidity;BMP_temperature;BMP_pressure;BME280_temperature;BME280_humidity;BME280_pressure;Samples;Min_cycle;Max_cycle;Signal;HPM_P1;HPM_P2
2022/09/17 00:01:47;;;;;;;;;;;;;;;21.72;51.87;99798.75;5035368;28;4267;-65
2022/09/17 00:04:13;;;;;;;;;;;;;;;21.72;51.70;99795.88;5034931;28;5229;-65
2022/09/17 00:06:40;;;;;;;;;;;;;;;21.72;51.94;99808.13;5036989;28;4062;-65
2022/09/17 00:09:06;;;;;;;;;;;;;;;21.73;52.02;99806.69;5033955;28;6458;-65
2022/09/17 00:11:34;;;;;;;;;;;;;;;21.72;52.07;99816.75;5038562;28;4184;-65
2022/09/17 00:14:00;;;;;;;;;;;;;;;21.74;52.09;99818.97;5037876;28;4253;-65
2022/09/17 00:16:31;;;;;;;;;;;;;;;21.73;52.06;99818.22;5039435;28;4180;-65
2022/09/17 00:18:57;;;;;;;;;;;;;;;21.73;52.32;99823.97;5035552;28;5234;-65
2022/09/17 00:21:24;;;;;;;;;;;;;;;21.72;52.47;99822.53;5034979;28;4156;-65
2022/09/17 00:23:57;;;;;;;;;;;;;;;21.72;52.53;99834.03;5038982;28;4468;-65
2022/09/17 00:26:24;;;;;;;;;;;;;;;21.73;52.46;99831.91;5036653;28;4166;-65
2022/09/17 00:28:51;;;;;;;;;;;;;;;21.73;52.57;99835.50;5037950;28;4160;-65
2022/09/17 00:31:17;;;;;;;;;;;;;;;21.75;52.38;99835.56;5038247;28;4185;-65
2022/09/17 00:33:43;;;;;;;;;;;;;;;21.74;52.41;99836.97;5038343;28;5308;-65
2022/09/17 00:36:10;;;;;;;;;;;;;;;21.74;52.69;99839.13;5034465;28;5514;-65
2022/09/17 00:38:36;;;;;;;;;;;;;;;21.72;52.78;99845.56;5039601;28;4277;-65
2022/09/17 00:41:03;;;;;;;;;;;;;;;21.74;52.77;99845.63;5037677;28;4158;-65
2022/09/17 00:43:33;;;;;;;;;;;;;;;21.75;52.69;99849.22;5038377;28;4240;-65
2022/09/17 00:46:00;;;;;;;;;;;;;;;21.75;52.72;99855.72;5035941;28;4542;-65
2022/09/17 00:48:26;;;;;;;;;;;;;;;21.74;52.88;99854.28;5044638;28;4054;-65
2022/09/17 00:50:52;;;;;;;;;;;;;;;21.75;52.65;99861.47;5034830;28;4242;-65
2022/09/17 00:53:19;;;;;;;;;;;;;;;21.75;52.71;99861.47;5047269;28;4178;-65
2022/09/17 00:55:47;;;;;;;;;;;;;;;21.77;52.85;99868.72;5032491;28;4068;-65
2022/09/17 00:58:14;;;;;;;;;;;;;;;21.78;52.89;99864.41;5030028;28;5398;-65
2022/09/17 01:00:40;;;;;;;;;;;;;;;21.78;52.92;99867.31;5035155;28;5342;-64
2022/09/17 01:03:07;;;;;;;;;;;;;;;21.75;52.91;99866.53;5037218;28;4195;-64
2022/09/17 01:05:47;;;;;;;;;;;;;;;21.78;53.03;99858.66;5037334;28;4250;-64
2022/09/17 01:08:24;;;;;;;;;;;;;;;21.79;53.06;99865.91;5034849;28;4338;-64
2022/09/17 01:11:04;;;;;;;;;;;;;;;21.81;53.23;99869.56;5052108;28;5469;-64
2022/09/17 01:13:36;;;;;;;;;;;;;;;21.79;53.09;99863.75;5036818;28;4381;-64
2022/09/17 01:16:08;;;;;;;;;;;;;;;21.82;53.21;99876.78;5033204;28;4164;-65
2022/09/17 01:18:44;;;;;;;;;;;;;;;21.80;53.38;99873.13;5050708;28;4026;-64
2022/09/17 01:21:19;;;;;;;;;;;;;;;21.79;53.32;99871.66;5048199;28;4034;-65
2022/09/17 01:24:04;;;;;;;;;;;;;;;21.80;53.15;99873.13;5037488;28;5261;-64
2022/09/17 01:26:49;;;;;;;;;;;;;;;21.80;53.21;99873.13;5022066;28;4139;-64
2022/09/17 01:29:33;;;;;;;;;;;;;;;21.81;53.18;99868.84;5009845;28;4231;-64
2022/09/17 01:32:11;;;;;;;;;;;;;;;21.81;53.40;99868.84;5042787;28;4207;-65
2022/09/17 01:34:43;;;;;;;;;;;;;;;21.81;53.34;99874.59;5011824;28;4057;-64
2022/09/17 01:37:13;;;;;;;;;;;;;;;21.80;53.32;99878.88;5014276;28;4249;-65
2022/09/17 01:39:45;;;;;;;;;;;;;;;21.81;53.63;99863.81;5048474;28;5334;-65
2022/09/17 01:42:16;;;;;;;;;;;;;;;21.81;53.54;99868.84;5046686;28;4202;-64
2022/09/17 01:45:03;;;;;;;;;;;;;;;21.81;53.52;99871.72;5012881;28;5172;-64
2022/09/17 01:47:30;;;;;;;;;;;;;;;21.80;53.44;99870.25;5011698;28;5016;-64
2022/09/17 01:49:58;;;;;;;;;;;;;;;21.80;53.52;99876.72;5025162;28;4244;-64
2022/09/17 01:52:25;;;;;;;;;;;;;;;21.83;53.45;99877.50;5048942;28;5056;-63
2022/09/17 01:54:52;;;;;;;;;;;;;;;21.80;53.45;99873.13;5014367;28;4203;-63
2022/09/17 01:57:22;;;;;;;;;;;;;;;21.80;53.60;99881.75;5012086;28;4215;-64
2022/09/17 01:59:54;;;;;;;;;;;;;;;21.78;53.31;99878.81;5031805;28;4180;-63
2022/09/17 02:02:23;;;;;;;;;;;;;;;21.81;53.35;99874.59;5045510;28;5208;-65
2022/09/17 02:05:04;;;;;;;;;;;;;;;21.81;53.69;99881.09;5010196;28;5325;-65
2022/09/17 02:07:30;;;;;;;;;;;;;;;21.80;53.77;99879.59;5046325;28;4291;-65
2022/09/17 02:10:05;;;;;;;;;;;;;;;21.81;53.69;99881.09;5016896;28;4279;-65
2022/09/17 02:12:35;;;;;;;;;;;;;;;21.83;53.58;99883.28;5016980;28;5101;-65
2022/09/17 02:15:02;;;;;;;;;;;;;;;21.80;53.78;99873.13;5015414;28;4209;-66
2022/09/17 02:17:34;;;;;;;;;;;;;;;21.81;53.63;99880.38;5012716;28;5487;-65
2022/09/17 02:20:00;;;;;;;;;;;;;;;21.82;53.75;99881.81;5016735;28;4254;-66
2022/09/17 02:22:27;;;;;;;;;;;;;;;21.81;53.76;99878.22;5044768;28;4126;-65
2022/09/17 02:24:57;;;;;;;;;;;;;;;21.80;53.71;99876.72;5046578;28;4358;-65
2022/09/17 02:27:26;;;;;;;;;;;;;;;21.81;53.65;99877.47;5038257;28;5146;-64
2022/09/17 02:29:53;;;;;;;;;;;;;;;21.82;53.50;99876.06;5034419;28;4250;-65
2022/09/17 02:32:19;;;;;;;;;;;;;;;21.84;54.15;99876.09;5027342;28;4218;-64
2022/09/17 02:34:46;;;;;;;;;;;;;;;21.83;54.18;99886.16;5029921;28;4121;-65
2022/09/17 02:37:12;;;;;;;;;;;;;;;21.83;54.19;99878.25;5030857;28;4170;-64
2022/09/17 02:39:39;;;;;;;;;;;;;;;21.83;54.07;99883.28;5048541;28;5451;-64
2022/09/17 02:42:22;;;;;;;;;;;;;;;21.83;54.12;99884.03;5034438;28;4209;-64
2022/09/17 02:45:12;;;;;;;;;;;;;;;21.82;54.20;99887.59;5047953;28;4301;-64
2022/09/17 02:47:45;;;;;;;;;;;;;;;21.82;53.94;99884.69;5029656;28;4275;-64
2022/09/17 02:50:18;;;;;;;;;;;;;;;21.81;54.08;99880.38;5043707;28;5216;-64
2022/09/17 02:52:48;;;;;;;;;;;;;;;21.83;54.06;99884.03;5034271;28;4216;-65
2022/09/17 02:55:26;;;;;;;;;;;;;;;21.85;53.98;99883.31;5034754;28;4143;-65
2022/09/17 02:57:55;;;;;;;;;;;;;;;21.81;53.95;99875.31;5046552;28;4076;-65
2022/09/17 03:00:21;;;;;;;;;;;;;;;21.83;54.04;99880.38;5050465;28;4096;-65
2022/09/17 03:02:49;;;;;;;;;;;;;;;21.82;53.96;99878.94;5032802;28;4181;-65
2022/09/17 03:05:16;;;;;;;;;;;;;;;21.83;54.30;99883.28;5048358;28;4131;-65
2022/09/17 03:07:42;;;;;;;;;;;;;;;21.84;54.21;99878.97;5048399;28;4132;-65
2022/09/17 03:10:09;;;;;;;;;;;;;;;21.82;54.05;99870.28;5033231;28;4405;-65
2022/09/17 03:12:36;;;;;;;;;;;;;;;21.83;54.42;99880.38;5035651;28;4181;-65
2022/09/17 03:15:02;;;;;;;;;;;;;;;21.81;54.13;99877.47;5042955;28;4316;-64
2022/09/17 03:17:28;;;;;;;;;;;;;;;21.83;54.38;99871.75;5035501;28;4388;-66
2022/09/17 03:19:55;;;;;;;;;;;;;;;21.85;54.40;99877.56;5031337;28;5059;-65
2022/09/17 03:22:21;;;;;;;;;;;;;;;21.83;54.37;99877.50;5031371;28;4321;-65
2022/09/17 03:24:47;;;;;;;;;;;;;;;21.83;54.38;99877.50;5034033;28;4183;-65
2022/09/17 03:27:14;;;;;;;;;;;;;;;21.83;54.30;99871.75;5025555;28;4367;-65
2022/09/17 03:29:40;;;;;;;;;;;;;;;21.85;54.34;99874.69;5021916;28;4188;-66
2022/09/17 03:32:07;;;;;;;;;;;;;;;21.83;54.25;99881.13;5030182;28;5493;-65
2022/09/17 03:34:33;;;;;;;;;;;;;;;21.82;54.20;99876.06;5030324;28;4067;-65
2022/09/17 03:37:00;;;;;;;;;;;;;;;21.83;54.25;99886.16;5029745;28;5426;-65
2022/09/17 03:39:27;;;;;;;;;;;;;;;21.84;53.98;99888.34;5033496;28;5260;-65
2022/09/17 03:41:53;;;;;;;;;;;;;;;21.84;54.27;99882.59;5037081;28;5345;-65
2022/09/17 03:44:21;;;;;;;;;;;;;;;21.83;54.17;99880.38;5035212;28;4224;-65
2022/09/17 03:46:48;;;;;;;;;;;;;;;21.82;54.18;99887.59;5033373;28;5282;-65
2022/09/17 03:49:14;;;;;;;;;;;;;;;21.82;54.49;99893.34;5033262;28;4209;-65
2022/09/17 03:51:41;;;;;;;;;;;;;;;21.83;54.27;99889.03;5036114;28;4257;-65
2022/09/17 03:54:08;;;;;;;;;;;;;;;21.82;54.36;99893.34;5029086;28;4235;-65
2022/09/17 03:56:34;;;;;;;;;;;;;;;21.82;54.34;99887.59;5035607;28;5589;-65
2022/09/17 03:59:00;;;;;;;;;;;;;;;21.82;54.38;99888.31;5032281;28;4177;-64
2022/09/17 04:01:27;;;;;;;;;;;;;;;21.82;54.34;99884.69;5036994;28;5290;-65
2022/09/17 04:03:53;;;;;;;;;;;;;;;21.81;54.32;99883.25;5030961;28;4201;-65
2022/09/17 04:06:20;;;;;;;;;;;;;;;21.82;54.53;99887.59;5034658;28;4835;-65
2022/09/17 04:08:46;;;;;;;;;;;;;;;21.83;54.55;99883.28;5035760;28;4200;-66
2022/09/17 04:11:12;;;;;;;;;;;;;;;21.84;54.27;99896.28;5037830;28;4171;-65
2022/09/17 04:13:39;;;;;;;;;;;;;;;21.85;54.46;99891.97;5033205;28;4216;-65
2022/09/17 04:16:05;;;;;;;;;;;;;;;21.83;54.64;99883.28;5036628;28;4253;-65
2022/09/17 04:18:31;;;;;;;;;;;;;;;21.82;54.56;99894.06;5034015;28;5331;-65
2022/09/17 04:20:58;;;;;;;;;;;;;;;21.83;54.36;99891.91;5026231;28;4251;-65
2022/09/17 04:23:24;;;;;;;;;;;;;;;21.83;54.45;99895.56;5038667;28;4169;-65
2022/09/17 04:25:50;;;;;;;;;;;;;;;21.84;54.42;99897.00;5037052;28;5316;-65
2022/09/17 04:28:17;;;;;;;;;;;;;;;21.83;54.73;99891.91;5037249;28;4223;-65
2022/09/17 04:30:43;;;;;;;;;;;;;;;21.82;54.48;99899.09;5035547;28;4257;-65
2022/09/17 04:33:10;;;;;;;;;;;;;;;21.83;54.29;99906.31;5028627;28;5326;-65
2022/09/17 04:35:36;;;;;;;;;;;;;;;21.83;54.61;99900.56;5031597;28;4077;-65
2022/09/17 04:38:02;;;;;;;;;;;;;;;21.81;54.73;99895.50;5037905;28;5168;-65
2022/09/17 04:40:28;;;;;;;;;;;;;;;21.84;54.47;99899.16;5036734;28;4258;-65
2022/09/17 04:42:55;;;;;;;;;;;;;;;21.84;54.74;99894.13;5036049;28;5438;-64
2022/09/17 04:45:22;;;;;;;;;;;;;;;21.84;54.61;99902.03;5035471;28;4177;-65
2022/09/17 04:47:49;;;;;;;;;;;;;;;21.84;54.67;99897.00;5035924;28;4364;-65
2022/09/17 04:50:19;;;;;;;;;;;;;;;21.83;54.66;99897.69;5035557;28;4379;-65
2022/09/17 04:52:45;;;;;;;;;;;;;;;21.84;54.77;99896.28;5037391;28;4166;-65
2022/09/17 04:55:12;;;;;;;;;;;;;;;21.82;54.57;99899.84;5037984;28;4211;-65
2022/09/17 04:57:38;;;;;;;;;;;;;;;21.83;54.40;99901.31;5035147;28;5518;-65
2022/09/17 05:00:05;;;;;;;;;;;;;;;21.82;54.36;99910.63;5035887;28;4212;-65
2022/09/17 05:02:32;;;;;;;;;;;;;;;21.82;54.50;99899.09;5036136;28;4172;-65
2022/09/17 05:04:58;;;;;;;;;;;;;;;21.81;54.43;99912.06;5033153;28;4555;-65
2022/09/17 05:07:24;;;;;;;;;;;;;;;21.79;54.45;99904.09;5033795;28;5270;-65
2022/09/17 05:09:52;;;;;;;;;;;;;;;21.80;54.67;99907.69;5031130;28;4085;-62
2022/09/17 05:12:18;;;;;;;;;;;;;;;21.81;54.67;99912.06;5033649;28;5273;-65
2022/09/17 05:14:45;;;;;;;;;;;;;;;21.83;54.97;99917.84;5033283;28;4240;-65
2022/09/17 05:17:11;;;;;;;;;;;;;;;21.83;54.71;99915.72;5028427;28;5283;-66
2022/09/17 05:19:37;;;;;;;;;;;;;;;21.84;54.80;99913.56;5034076;28;4262;-66
2022/09/17 05:22:04;;;;;;;;;;;;;;;21.83;54.66;99917.84;5032868;28;5536;-65
2022/09/17 05:24:30;;;;;;;;;;;;;;;21.83;54.60;99923.63;5033399;28;4245;-64
2022/09/17 05:26:56;;;;;;;;;;;;;;;21.82;54.65;99928.66;5037020;28;4275;-65
2022/09/17 05:29:23;;;;;;;;;;;;;;;21.83;54.94;99926.50;5033575;28;4278;-65
2022/09/17 05:31:49;;;;;;;;;;;;;;;21.82;54.73;99922.16;5036183;28;4220;-65
2022/09/17 05:34:15;;;;;;;;;;;;;;;21.83;54.80;99932.25;5032059;28;5422;-64
2022/09/17 05:36:42;;;;;;;;;;;;;;;21.84;54.93;99930.84;5034580;28;4257;-65
2022/09/17 05:39:08;;;;;;;;;;;;;;;21.82;54.51;99933.69;5034296;28;5568;-65
2022/09/17 05:41:34;;;;;;;;;;;;;;;21.81;54.81;99938.72;5035766;28;4153;-65
2022/09/17 05:44:01;;;;;;;;;;;;;;;21.81;54.58;99929.34;5036472;28;4056;-65
2022/09/17 05:46:27;;;;;;;;;;;;;;;21.81;54.96;99935.84;5033421;28;4059;-65
2022/09/17 05:48:57;;;;;;;;;;;;;;;21.81;54.92;99938.72;5033049;28;5417;-65
2022/09/17 05:51:23;;;;;;;;;;;;;;;21.83;54.71;99946.66;5034289;28;4166;-63
2022/09/17 05:53:49;;;;;;;;;;;;;;;21.81;54.64;99938.72;5033894;28;4363;-65
2022/09/17 05:56:15;;;;;;;;;;;;;;;21.85;54.65;99943.84;5022432;28;5268;-65
2022/09/17 05:58:42;;;;;;;;;;;;;;;21.85;54.80;99958.25;5033061;28;4183;-65
2022/09/17 06:01:14;;;;;;;;;;;;;;;21.87;55.00;99946.78;5034898;28;4026;-65
2022/09/17 06:03:41;;;;;;;;;;;;;;;21.83;54.90;99946.66;5030056;28;4247;-66
2022/09/17 06:06:07;;;;;;;;;;;;;;;21.84;54.95;99954.63;5035835;28;5417;-65
2022/09/17 06:08:36;;;;;;;;;;;;;;;21.83;55.12;99955.31;5032598;28;4206;-65
2022/09/17 06:11:04;;;;;;;;;;;;;;;21.84;55.01;99956.78;5031388;28;5544;-64
2022/09/17 06:13:31;;;;;;;;;;;;;;;21.83;55.06;99958.94;5035790;28;4071;-64
2022/09/17 06:15:57;;;;;;;;;;;;;;;21.81;55.16;99967.53;5032579;28;5247;-64
2022/09/17 06:18:24;;;;;;;;;;;;;;;21.82;55.23;99974.03;5026749;28;4240;-64
2022/09/17 06:20:54;;;;;;;;;;;;;;;21.81;55.14;99969.69;5029233;28;4308;-64
2022/09/17 06:23:20;;;;;;;;;;;;;;;21.83;54.99;99970.47;5029921;28;4182;-65
2022/09/17 06:25:53;;;;;;;;;;;;;;;21.88;55.34;99977.09;5034025;28;4065;-64
2022/09/17 06:28:20;;;;;;;;;;;;;;;21.91;55.70;99975.72;5033742;28;4173;-69
2022/09/17 06:30:47;;;;;;;;;;;;;;;21.77;54.56;99972.47;5034916;28;4195;-63
2022/09/17 06:33:13;;;;;;;;;;;;;;;21.62;53.99;99977.09;5032517;28;4183;-63
2022/09/17 06:35:40;;;;;;;;;;;;;;;21.50;54.14;99984.00;5026190;28;5359;-62
2022/09/17 06:38:06;;;;;;;;;;;;;;;21.47;54.19;99976.72;5031519;28;4290;-63
2022/09/17 06:40:33;;;;;;;;;;;;;;;21.48;54.36;99981.06;5034108;28;4129;-63
2022/09/17 06:42:59;;;;;;;;;;;;;;;21.51;54.26;99978.97;5036128;28;4175;-62
2022/09/17 06:45:26;;;;;;;;;;;;;;;21.53;54.24;99967.50;5032664;28;4300;-63
2022/09/17 06:47:52;;;;;;;;;;;;;;;21.53;53.95;99979.78;5032435;28;4210;-62
2022/09/17 06:50:18;;;;;;;;;;;;;;;21.51;54.48;99970.34;5030990;28;4232;-61
2022/09/17 06:52:48;;;;;;;;;;;;;;;21.49;54.32;99973.91;5032259;28;5093;-63
2022/09/17 06:55:15;;;;;;;;;;;;;;;21.18;54.22;99974.41;5034276;28;4162;-61
2022/09/17 06:57:41;;;;;;;;;;;;;;;21.15;54.11;99988.00;5028130;28;5325;-60
2022/09/17 07:00:08;;;;;;;;;;;;;;;21.04;54.15;99986.97;5029019;28;4246;-63
2022/09/17 07:02:34;;;;;;;;;;;;;;;20.73;54.61;99993.97;5034245;28;4255;-63
2022/09/17 07:05:00;;;;;;;;;;;;;;;20.71;54.37;99993.91;5036282;28;5416;-63
2022/09/17 07:07:27;;;;;;;;;;;;;;;20.62;54.47;99986.41;5035273;28;4176;-63
2022/09/17 07:09:54;;;;;;;;;;;;;;;20.65;54.11;99987.94;5036539;28;4154;-63
2022/09/17 07:12:20;;;;;;;;;;;;;;;20.65;54.18;99982.91;5031734;28;5112;-64
2022/09/17 07:14:47;;;;;;;;;;;;;;;20.57;54.41;99993.44;5037984;28;4306;-63
2022/09/17 07:17:13;;;;;;;;;;;;;;;20.60;54.25;100001.47;5041879;28;5247;-63
2022/09/17 07:19:40;;;;;;;;;;;;;;;20.70;53.73;99998.16;5040529;28;4141;-63
2022/09/17 07:22:07;;;;;;;;;;;;;;;20.58;53.92;99992.03;5042103;28;4295;-64
2022/09/17 07:24:33;;;;;;;;;;;;;;;20.79;53.67;99994.13;5040306;28;4218;-63
2022/09/17 07:26:59;;;;;;;;;;;;;;;20.74;53.33;100006.94;5038091;28;4276;-63
2022/09/17 07:29:26;;;;;;;;;;;;;;;20.55;53.60;99999.09;5038589;28;5251;-63
2022/09/17 07:31:52;;;;;;;;;;;;;;;20.46;53.74;99987.34;5042400;28;4193;-63
2022/09/17 07:34:19;;;;;;;;;;;;;;;20.64;53.37;100003.75;5041434;28;4369;-63
2022/09/17 07:36:45;;;;;;;;;;;;;;;20.47;53.92;99997.44;5039592;28;5359;-63
2022/09/17 07:39:14;;;;;;;;;;;;;;;20.65;53.21;99996.56;5040572;28;4151;-62
2022/09/17 07:41:41;;;;;;;;;;;;;;;20.72;53.17;100001.09;5040191;28;4522;-62
2022/09/17 07:44:08;;;;;;;;;;;;;;;20.56;53.47;99995.56;5040143;28;5298;-63
2022/09/17 07:46:34;;;;;;;;;;;;;;;20.58;53.46;100010.03;5040178;28;4188;-62
2022/09/17 07:49:01;;;;;;;;;;;;;;;20.39;53.85;100000.06;5036998;28;4211;-63
2022/09/17 07:51:27;;;;;;;;;;;;;;;20.31;54.54;99999.78;5038672;28;4345;-61
2022/09/17 07:53:54;;;;;;;;;;;;;;;20.58;53.87;100000.66;5041095;28;4125;-62
2022/09/17 07:56:21;;;;;;;;;;;;;;;20.26;53.52;100009.69;5038761;28;5312;-58
2022/09/17 07:58:47;;;;;;;;;;;;;;;20.06;54.19;100001.84;5035770;28;4159;-61
2022/09/17 08:01:15;;;;;;;;;;;;;;;20.28;53.99;100007.59;5038879;28;4164;-59
2022/09/17 08:03:42;;;;;;;;;;;;;;;20.34;53.81;100003.44;5034201;28;4082;-59
2022/09/17 08:06:09;;;;;;;;;;;;;;;20.65;53.53;100008.09;5034861;28;4294;-60
2022/09/17 08:08:36;;;;;;;;;;;;;;;20.87;53.17;100005.19;5039295;28;5247;-59
2022/09/17 08:11:02;;;;;;;;;;;;;;;21.00;52.89;100009.13;5035197;28;4519;-59
2022/09/17 08:13:29;;;;;;;;;;;;;;;21.06;52.71;100003.56;5040486;28;4196;-58
2022/09/17 08:15:59;;;;;;;;;;;;;;;21.10;52.73;99997.94;5036059;28;4295;-58
2022/09/17 08:18:26;;;;;;;;;;;;;;;21.12;53.11;100001.63;5040545;28;6501;-58
2022/09/17 08:20:55;;;;;;;;;;;;;;;21.14;52.82;99998.03;5039947;28;4163;-57
2022/09/17 08:23:21;;;;;;;;;;;;;;;21.16;53.01;99998.09;5041634;28;4117;-58
2022/09/17 08:25:51;;;;;;;;;;;;;;;21.19;53.24;100004.66;5039049;28;4606;-58
2022/09/17 08:28:17;;;;;;;;;;;;;;;21.18;53.44;99998.16;5040257;28;4205;-58
2022/09/17 08:30:45;;;;;;;;;;;;;;;21.19;53.40;99999.66;5040861;28;4204;-57
2022/09/17 08:33:11;;;;;;;;;;;;;;;21.19;53.45;100002.53;5040054;28;4458;-58
2022/09/17 08:35:37;;;;;;;;;;;;;;;21.19;53.53;100008.28;5034378;28;5248;-65
2022/09/17 08:38:44;;;;;;;;;;;;;;;21.20;53.30;100003.25;5031362;28;4171;-62
2022/09/17 08:41:17;;;;;;;;;;;;;;;21.16;53.19;100000.97;5045628;28;4057;-61
2022/09/17 08:44:06;;;;;;;;;;;;;;;21.19;52.75;99996.78;5051272;28;4067;-61
2022/09/17 08:46:34;;;;;;;;;;;;;;;21.20;52.92;100006.88;5028118;28;4168;-62
2022/09/17 08:49:00;;;;;;;;;;;;;;;21.20;52.92;99998.22;5030932;28;4164;-61
2022/09/17 08:51:46;;;;;;;;;;;;;;;21.19;52.81;100005.41;5014408;28;4229;-61
2022/09/17 08:54:27;;;;;;;;;;;;;;;21.20;52.98;100001.09;5018893;28;4183;-61
2022/09/17 08:57:07;;;;;;;;;;;;;;;21.19;52.78;99999.66;5032806;28;4224;-62
2022/09/17 08:59:37;;;;;;;;;;;;;;;21.07;52.86;100005.03;5034183;28;4170;-66
2022/09/17 09:02:09;;;;;;;;;;;;;;;21.12;52.22;100000.88;5047189;28;4148;-58
2022/09/17 09:04:43;;;;;;;;;;;;;;;21.18;51.59;99998.16;5039720;28;4247;-58
2022/09/17 09:07:16;;;;;;;;;;;;;;;21.19;51.79;99993.91;5047981;28;4362;-58
2022/09/17 09:09:45;;;;;;;;;;;;;;;21.23;52.44;100017.03;5037379;28;4266;-58
2022/09/17 09:12:14;;;;;;;;;;;;;;;21.19;53.85;100016.94;5046391;28;5273;-58
2022/09/17 09:14:54;;;;;;;;;;;;;;;21.18;54.17;100001.06;5031882;28;4186;-58
2022/09/17 09:17:21;;;;;;;;;;;;;;;21.21;53.97;100008.34;5044710;28;4057;-59
2022/09/17 09:19:48;;;;;;;;;;;;;;;21.22;53.99;100009.81;5049218;28;4241;-58
2022/09/17 09:22:23;;;;;;;;;;;;;;;21.20;54.01;100006.88;5032920;28;4007;-58
2022/09/17 09:24:53;;;;;;;;;;;;;;;21.18;53.49;100017.59;5049441;28;4224;-58
2022/09/17 09:27:22;;;;;;;;;;;;;;;21.19;53.48;100016.94;5034595;28;5037;-59
2022/09/17 09:30:03;;;;;;;;;;;;;;;21.21;52.94;100019.13;5052110;28;4206;-59
2022/09/17 09:32:48;;;;;;;;;;;;;;;21.22;53.08;100014.84;5051824;28;5424;-59
2022/09/17 09:35:15;;;;;;;;;;;;;;;21.19;53.11;100022.69;5038365;28;6156;-62
2022/09/17 09:37:43;;;;;;;;;;;;;;;21.65;53.98;100031.22;5038397;28;4006;-60
2022/09/17 09:40:22;;;;;;;;;;;;;;;22.14;52.83;100037.56;5031183;28;4258;-59
2022/09/17 09:42:48;;;;;;;;;;;;;;;22.08;52.02;100040.28;5041764;28;4325;-62
2022/09/17 09:45:15;;;;;;;;;;;;;;;22.06;51.82;100049.63;5013560;28;5259;-61
2022/09/17 09:47:48;;;;;;;;;;;;;;;22.12;51.78;100046.16;5007828;28;4248;-61
2022/09/17 09:50:23;;;;;;;;;;;;;;;21.99;52.09;100053.75;5001369;28;4491;-60
2022/09/17 09:52:52;;;;;;;;;;;;;;;22.06;52.04;100043.84;5044759;28;4086;-64
2022/09/17 09:55:24;;;;;;;;;;;;;;;22.56;50.77;100040.81;5012840;28;4184;-62
2022/09/17 09:57:57;;;;;;;;;;;;;;;22.79;49.71;100042.09;5035336;28;5542;-61
2022/09/17 10:00:34;;;;;;;;;;;;;;;23.01;49.44;100032.47;5043683;28;4119;-62
2022/09/17 10:03:03;;;;;;;;;;;;;;;22.79;50.41;100032.66;5009285;28;4160;-60
2022/09/17 10:05:30;;;;;;;;;;;;;;;22.94;49.98;100031.59;5007307;28;4470;-61
2022/09/17 10:07:56;;;;;;;;;;;;;;;22.96;49.48;100028.03;5016710;28;4274;-62
2022/09/17 10:10:26;;;;;;;;;;;;;;;22.77;49.68;100029.75;5009234;28;4431;-62
2022/09/17 10:13:05;;;;;;;;;;;;;;;22.85;48.97;100034.97;5011336;28;4219;-61
2022/09/17 10:15:31;;;;;;;;;;;;;;;22.85;48.57;100041.47;5030555;28;4184;-63
2022/09/17 10:18:09;;;;;;;;;;;;;;;22.34;49.59;100049.66;5028638;28;6359;-63
2022/09/17 10:20:35;;;;;;;;;;;;;;;22.23;49.73;100056.56;5022858;28;4371;-61
2022/09/17 10:23:04;;;;;;;;;;;;;;;22.17;50.30;100050.59;5020784;28;4234;-63
2022/09/17 10:25:31;;;;;;;;;;;;;;;22.28;49.63;100055.25;5028581;28;4372;-60
2022/09/17 10:27:58;;;;;;;;;;;;;;;22.24;49.77;100063.06;5041795;28;4639;-62
2022/09/17 10:30:24;;;;;;;;;;;;;;;21.85;51.71;100053.34;5036984;28;5314;-63
2022/09/17 10:33:10;;;;;;;;;;;;;;;21.73;51.51;100053.75;5049899;28;5373;-63
2022/09/17 10:35:36;;;;;;;;;;;;;;;21.62;51.72;100061.38;5035199;28;4159;-63
2022/09/17 10:38:02;;;;;;;;;;;;;;;21.54;51.58;100061.88;5022704;28;5280;-63
2022/09/17 10:40:30;;;;;;;;;;;;;;;21.54;50.93;100061.16;5033745;28;4254;-62
2022/09/17 10:43:15;;;;;;;;;;;;;;;21.50;50.79;100056.00;5027585;28;4272;-64
2022/09/17 10:45:42;;;;;;;;;;;;;;;21.41;51.20;100065.09;5034484;28;4241;-73
2022/09/17 10:48:15;;;;;;;;;;;;;;;21.43;50.97;100062.25;5033671;28;4355;-74
2022/09/17 10:50:46;;;;;;;;;;;;;;;21.36;50.60;100063.47;5047883;28;4192;-73
2022/09/17 10:53:14;;;;;;;;;;;;;;;21.33;50.20;100066.28;5033257;28;4211;-69
2022/09/17 10:55:46;;;;;;;;;;;;;;;21.42;49.05;100061.53;5036707;28;4139;-72
2022/09/17 10:58:13;;;;;;;;;;;;;;;21.32;49.20;100064.81;5030335;28;4043;-72
2022/09/17 11:00:51;;;;;;;;;;;;;;;21.38;48.71;100069.28;5030014;28;4143;-71
2022/09/17 11:03:36;;;;;;;;;;;;;;;21.32;49.14;100073.44;5036909;28;4214;-72
2022/09/17 11:06:14;;;;;;;;;;;;;;;21.27;48.50;100068.97;5033753;28;4405;-70
2022/09/17 11:08:59;;;;;;;;;;;;;;;21.28;48.51;100064.72;5029325;28;4428;-73
2022/09/17 11:11:46;;;;;;;;;;;;;;;21.28;48.46;100073.34;5032618;28;4488;-76
2022/09/17 11:14:13;;;;;;;;;;;;;;;21.26;48.71;100084.81;5018654;28;4192;-75
2022/09/17 11:16:47;;;;;;;;;;;;;;;21.24;48.69;100081.13;5033051;28;4537;-75
2022/09/17 11:19:18;;;;;;;;;;;;;;;21.19;48.63;100091.78;5042555;28;4147;-74
2022/09/17 11:21:45;;;;;;;;;;;;;;;21.21;48.60;100083.22;5045928;28;4493;-75
2022/09/17 11:24:22;;;;;;;;;;;;;;;21.20;48.70;100075.97;5029836;28;4181;-67
2022/09/17 11:26:55;;;;;;;;;;;;;;;21.21;48.81;100074.56;5038119;28;4206;-75
2022/09/17 11:29:30;;;;;;;;;;;;;;;21.27;48.40;100066.09;5006875;28;5342;-69
2022/09/17 11:32:15;;;;;;;;;;;;;;;21.20;47.50;100064.44;5009642;28;4199;-74
2022/09/17 11:34:45;;;;;;;;;;;;;;;21.05;47.88;100051.03;5007666;28;4246;-74
2022/09/17 11:37:29;;;;;;;;;;;;;;;21.21;47.70;100071.69;4994440;28;5025;-71
2022/09/17 11:39:58;;;;;;;;;;;;;;;21.25;47.59;100053.78;5013790;28;4165;-65
2022/09/17 11:42:28;;;;;;;;;;;;;;;21.21;48.22;100060.19;5008772;28;4212;-62
2022/09/17 11:44:55;;;;;;;;;;;;;;;21.20;47.39;100055.09;5027672;28;4264;-73
2022/09/17 11:47:28;;;;;;;;;;;;;;;21.22;47.52;100060.91;5032311;28;4262;-72
2022/09/17 11:49:59;;;;;;;;;;;;;;;21.27;47.60;100053.84;5050940;28;4183;-74
2022/09/17 11:52:33;;;;;;;;;;;;;;;21.33;47.42;100056.91;5033867;28;4211;-75
2022/09/17 11:55:09;;;;;;;;;;;;;;;21.37;47.64;100047.66;5050018;28;4238;-73
2022/09/17 11:57:36;;;;;;;;;;;;;;;21.40;48.12;100052.84;5028049;28;4323;-73
2022/09/17 12:00:08;;;;;;;;;;;;;;;21.40;48.73;100054.97;5036583;28;4362;-73
2022/09/17 12:02:43;;;;;;;;;;;;;;;21.41;48.45;100065.09;5040238;28;4221;-73
2022/09/17 12:05:19;;;;;;;;;;;;;;;21.36;48.99;100060.59;5041339;28;4026;-72
2022/09/17 12:07:46;;;;;;;;;;;;;;;21.38;49.04;100083.69;5053909;28;4211;-73
2022/09/17 12:10:30;;;;;;;;;;;;;;;21.36;49.46;100057.72;5037456;28;4206;-73
2022/09/17 12:12:58;;;;;;;;;;;;;;;21.34;49.25;100044.72;5051312;28;4386;-70
2022/09/17 12:15:28;;;;;;;;;;;;;;;21.34;49.35;100044.72;5045267;28;4147;-71
2022/09/17 12:18:03;;;;;;;;;;;;;;;21.34;49.42;100049.75;5055567;28;4074;-69
2022/09/17 12:20:50;;;;;;;;;;;;;;;21.41;49.34;100042.78;5051563;28;4173;-73
2022/09/17 12:23:18;;;;;;;;;;;;;;;21.42;49.56;100032.00;5053630;28;5335;-72
2022/09/17 12:25:55;;;;;;;;;;;;;;;21.43;49.53;100036.34;5053571;28;4253;-71
2022/09/17 12:28:24;;;;;;;;;;;;;;;21.44;49.94;100024.16;5053850;28;4192;-71
2022/09/17 12:31:23;;;;;;;;;;;;;;;21.47;49.84;100022.06;5035225;28;4234;-74
2022/09/17 12:34:10;;;;;;;;;;;;;;;21.49;50.00;100019.25;5022823;28;4629;-73
2022/09/17 12:36:39;;;;;;;;;;;;;;;21.50;50.04;100007.03;5022508;28;4200;-74
2022/09/17 12:39:08;;;;;;;;;;;;;;;21.49;50.16;100007.72;5031562;28;5302;-75
2022/09/17 12:41:42;;;;;;;;;;;;;;;21.48;50.50;100012.00;5039534;28;5231;-75
2022/09/17 12:44:27;;;;;;;;;;;;;;;21.48;50.49;100017.75;5032101;28;4181;-75
2022/09/17 12:47:01;;;;;;;;;;;;;;;21.48;50.54;100026.41;5018730;28;4208;-76
2022/09/17 12:49:31;;;;;;;;;;;;;;;21.47;50.90;100022.06;5037826;28;5448;-74
2022/09/17 12:52:15;;;;;;;;;;;;;;;21.47;50.93;100024.94;5042346;28;4133;-78
2022/09/17 12:54:50;;;;;;;;;;;;;;;21.49;50.87;100025.75;5035401;28;5496;-76
2022/09/17 12:57:25;;;;;;;;;;;;;;;21.52;50.99;100017.88;5039495;28;4051;-75
2022/09/17 13:00:07;;;;;;;;;;;;;;;21.53;50.75;100016.47;5034208;28;5531;-76
2022/09/17 13:02:39;;;;;;;;;;;;;;;21.53;50.73;100019.34;5032348;28;4419;-76
2022/09/17 13:05:10;;;;;;;;;;;;;;;21.51;51.07;100013.53;5044933;28;4234;-73
2022/09/17 13:07:38;;;;;;;;;;;;;;;21.53;51.07;100002.81;5053948;28;4330;-77